Time;durP1;ratioP1;P1;durP2;ratioP2;P2;SDS_P1;SDS_P2;PMS_P1;PMS_P2;Temp;Humidity;BMP_temperature;BMP_pressure;BME280_temperature;BME280_humidity;BME280_pressure;Samples;Min_cycle;Max_cycle;Signal;HPM_P1;HPM_P2
2021/12/20 00:02:09;;;;;;;21.27;13.23;;;5.30;99.90;;;;;;7375388;19;20194;-72
2021/12/20 00:04:39;;;;;;;20.17;11.80;;;5.40;99.90;;;;;;7374041;19;20135;-72
2021/12/20 00:07:08;;;;;;;18.27;11.50;;;5.60;99.90;;;;;;7377691;19;20135;-72
2021/12/20 00:09:34;;;;;;;22.30;12.13;;;5.70;99.90;;;;;;7360548;19;20823;-72
2021/12/20 00:12:02;;;;;;;21.67;13.10;;;5.80;99.90;;;;;;7356255;19;20152;-72
2021/12/20 00:14:30;;;;;;;22.50;12.85;;;5.90;99.90;;;;;;7373368;19;20156;-71
2021/12/20 00:16:57;;;;;;;22.52;12.90;;;5.90;99.90;;;;;;7372894;19;20590;-72
2021/12/20 00:19:26;;;;;;;19.55;12.27;;;5.90;99.90;;;;;;7368768;19;20143;-72
2021/12/20 00:21:52;;;;;;;19.42;10.65;;;6.00;99.90;;;;;;7372321;19;20131;-72
2021/12/20 00:24:21;;;;;;;20.45;12.15;;;6.00;99.90;;;;;;7369559;19;20139;-72
2021/12/20 00:26:49;;;;;;;18.63;10.77;;;6.10;99.90;;;;;;7379067;19;20634;-72
2021/12/20 00:29:16;;;;;;;13.68;10.10;;;6.10;99.90;;;;;;7372376;19;20127;-71
2021/12/20 00:31:44;;;;;;;18.50;10.55;;;6.00;99.90;;;;;;7378301;19;20131;-72
2021/12/20 00:34:11;;;;;;;21.98;12.07;;;6.00;99.90;;;;;;7371071;19;20150;-72
2021/12/20 00:36:44;;;;;;;14.63;10.30;;;6.00;99.90;;;;;;7378275;19;20141;-72
2021/12/20 00:42:16;;;;;;;17.10;10.77;;;5.90;99.90;;;;;;7369220;19;20160;-71
2021/12/20 00:44:47;;;;;;;19.85;11.27;;;5.90;99.90;;;;;;7371067;19;20590;-72
2021/12/20 00:47:15;;;;;;;18.40;11.88;;;6.00;99.90;;;;;;7367429;19;20139;-72
2021/12/20 00:49:44;;;;;;;18.45;11.95;;;6.10;99.90;;;;;;7365573;19;20135;-72
2021/12/20 00:52:11;;;;;;;15.50;10.43;;;6.10;99.90;;;;;;7365738;19;20139;-71
2021/12/20 00:54:37;;;;;;;18.05;11.30;;;6.00;99.90;;;;;;7370812;19;20163;-71
2021/12/20 00:57:06;;;;;;;18.50;12.25;;;6.00;99.90;;;;;;7378018;19;20143;-72
2021/12/20 00:59:32;;;;;;;14.00;9.43;;;6.00;99.90;;;;;;7375421;19;20135;-72
2021/12/20 01:02:01;;;;;;;16.33;10.85;;;6.10;99.90;;;;;;7375178;19;20213;-72
2021/12/20 01:04:27;;;;;;;17.42;10.95;;;6.10;99.90;;;;;;7372291;19;20132;-72
2021/12/20 01:06:59;;;;;;;15.65;10.05;;;6.20;99.90;;;;;;7374552;19;20364;-72
2021/12/20 01:09:28;;;;;;;15.70;11.70;;;6.10;99.90;;;;;;7372591;19;20626;-72
2021/12/20 01:12:01;;;;;;;18.20;11.48;;;6.00;99.90;;;;;;7371554;19;20135;-72
2021/12/20 01:14:32;;;;;;;20.38;11.10;;;6.00;99.90;;;;;;7372393;19;20158;-72
2021/12/20 01:17:05;;;;;;;13.52;9.68;;;6.10;99.90;;;;;;7387085;19;21131;-72
2021/12/20 01:19:36;;;;;;;17.38;10.95;;;6.10;99.90;;;;;;7386457;19;20147;-74
2021/12/20 01:22:08;;;;;;;19.27;11.38;;;6.00;99.90;;;;;;7389463;19;20134;-73
2021/12/20 01:24:34;;;;;;;17.63;11.88;;;6.10;99.90;;;;;;7386278;19;20131;-74
2021/12/20 01:27:06;;;;;;;21.42;11.98;;;6.00;99.90;;;;;;7387081;19;20131;-74
2021/12/20 01:29:34;;;;;;;19.80;11.75;;;6.00;99.90;;;;;;7386235;19;20131;-74
2021/12/20 01:32:01;;;;;;;20.65;12.25;;;6.00;99.90;;;;;;7387799;19;20136;-74
2021/12/20 01:34:29;;;;;;;19.30;11.38;;;6.00;99.90;;;;;;7388625;19;20139;-74
2021/12/20 01:36:56;;;;;;;17.48;11.70;;;5.90;99.90;;;;;;7386064;19;20139;-74
2021/12/20 01:39:25;;;;;;;21.25;11.88;;;5.90;99.90;;;;;;7385849;19;20135;-74
2021/12/20 01:41:52;;;;;;;21.08;12.30;;;5.90;99.90;;;;;;7389891;19;20567;-74
2021/12/20 01:44:22;;;;;;;20.30;12.65;;;5.80;99.90;;;;;;7389363;19;20147;-74
2021/12/20 01:46:51;;;;;;;19.42;11.80;;;5.80;99.90;;;;;;7384511;19;20150;-74
2021/12/20 01:49:18;;;;;;;18.60;11.45;;;5.80;99.90;;;;;;7388591;19;20144;-73
2021/12/20 01:52:40;;;;;;;19.15;11.52;;;5.80;99.90;;;;;;7386037;19;20613;-74
2021/12/20 01:54:39;;;;;;;21.08;12.40;;;5.60;99.90;;;;;;7380240;19;20185;-73
2021/12/20 01:57:05;;;;;;;18.83;12.02;;;5.50;99.90;;;;;;7389542;19;20127;-73
2021/12/20 01:59:39;;;;;;;19.83;11.40;;;5.40;99.90;;;;;;7391320;19;20128;-74
2021/12/20 02:02:08;;;;;;;18.92;11.73;;;5.30;99.90;;;;;;7387044;19;21230;-73
2021/12/20 02:04:45;;;;;;;18.33;10.25;;;5.20;99.90;;;;;;7387657;19;20229;-74
2021/12/20 02:07:34;;;;;;;16.88;10.60;;;5.20;99.90;;;;;;7388933;19;20136;-74
2021/12/20 02:10:00;;;;;;;24.35;12.05;;;5.20;99.90;;;;;;7382673;19;20172;-74
2021/12/20 02:12:29;;;;;;;20.73;11.55;;;5.10;99.90;;;;;;7386898;19;20135;-74
2021/12/20 02:15:00;;;;;;;25.42;11.43;;;5.10;99.90;;;;;;7391130;19;20220;-74
2021/12/20 02:17:31;;;;;;;21.98;11.90;;;5.10;99.90;;;;;;7387828;19;20147;-74
2021/12/20 02:20:06;;;;;;;19.60;11.55;;;5.00;99.90;;;;;;7387767;19;20438;-72
2021/12/20 02:22:33;;;;;;;20.95;11.18;;;5.00;99.90;;;;;;7387213;19;20131;-72
2021/12/20 02:24:59;;;;;;;18.15;10.52;;;4.90;99.90;;;;;;7390662;19;20128;-72
2021/12/20 02:27:26;;;;;;;21.55;11.43;;;4.90;99.90;;;;;;7379820;19;20139;-72
2021/12/20 02:30:12;;;;;;;25.55;12.45;;;4.90;99.90;;;;;;7382217;19;20548;-72
2021/12/20 02:38:33;;;;;;;18.40;11.45;;;4.90;99.90;;;;;;7383734;19;20207;-72
2021/12/20 02:41:06;;;;;;;16.00;9.93;;;4.90;99.90;;;;;;7371746;19;20206;-71
2021/12/20 02:43:41;;;;;;;21.25;11.68;;;4.90;99.90;;;;;;7378550;19;20165;-71
2021/12/20 02:46:42;;;;;;;23.88;12.50;;;4.90;99.90;;;;;;7379972;19;20136;-71
2021/12/20 02:49:14;;;;;;;21.15;11.20;;;4.90;99.90;;;;;;7379786;19;20178;-71
2021/12/20 02:51:44;;;;;;;21.10;10.75;;;4.80;99.90;;;;;;7379085;19;20162;-71
2021/12/20 02:54:14;;;;;;;17.52;10.07;;;4.80;99.90;;;;;;7361574;19;20164;-71
2021/12/20 02:56:42;;;;;;;19.85;10.70;;;4.90;99.90;;;;;;7375914;19;20203;-72
2021/12/20 02:59:12;;;;;;;19.90;11.45;;;4.90;99.90;;;;;;7382587;19;20128;-71
2021/12/20 03:01:41;;;;;;;18.83;10.50;;;4.90;99.90;;;;;;7379283;19;20637;-71
2021/12/20 03:04:10;;;;;;;19.70;10.85;;;4.90;99.90;;;;;;7378681;19;20136;-71
2021/12/20 03:06:40;;;;;;;18.67;11.50;;;4.90;99.90;;;;;;7384139;19;20140;-71
2021/12/20 03:09:10;;;;;;;20.80;11.77;;;4.80;99.90;;;;;;7380503;19;20138;-71
2021/12/20 03:11:37;;;;;;;19.27;11.60;;;4.90;99.90;;;;;;7375994;19;20138;-72
2021/12/20 03:14:14;;;;;;;19.33;11.25;;;4.90;99.90;;;;;;7377367;19;20132;-72
2021/12/20 03:16:41;;;;;;;24.48;11.25;;;5.00;99.90;;;;;;7379062;19;20227;-71
2021/12/20 03:19:08;;;;;;;20.80;11.50;;;5.00;99.90;;;;;;7380810;19;20524;-72
2021/12/20 03:21:36;;;;;;;22.27;12.10;;;4.90;99.90;;;;;;7383021;19;20141;-71
2021/12/20 03:24:06;;;;;;;22.95;11.98;;;4.80;99.90;;;;;;7381999;19;20213;-71
2021/12/20 03:26:35;;;;;;;25.95;12.23;;;4.90;99.90;;;;;;7381117;19;20144;-71
2021/12/20 03:29:04;;;;;;;20.40;10.85;;;5.00;99.90;;;;;;7369545;19;20144;-72
2021/12/20 03:31:30;;;;;;;22.15;11.82;;;5.10;99.90;;;;;;7380093;19;20485;-72
2021/12/20 03:33:59;;;;;;;22.52;12.93;;;5.20;99.90;;;;;;7378967;19;20489;-72
2021/12/20 03:36:29;;;;;;;27.85;12.82;;;5.40;99.90;;;;;;7381988;19;20599;-72
2021/12/20 03:39:02;;;;;;;22.27;12.23;;;5.40;99.90;;;;;;7369429;19;20166;-72
2021/12/20 03:41:31;;;;;;;26.10;13.80;;;5.40;99.90;;;;;;7376596;19;20136;-72
2021/12/20 03:43:58;;;;;;;23.65;12.30;;;5.40;99.90;;;;;;7375133;19;20602;-72
2021/12/20 03:46:24;;;;;;;25.85;14.23;;;5.30;99.90;;;;;;7378428;19;20534;-72
2021/12/20 03:48:51;;;;;;;23.38;13.20;;;5.40;99.90;;;;;;7378377;19;20649;-72
2021/12/20 03:51:20;;;;;;;25.85;13.80;;;5.40;99.90;;;;;;7381071;19;20127;-72
2021/12/20 03:53:49;;;;;;;26.23;13.82;;;5.30;99.90;;;;;;7379138;19;20177;-72
2021/12/20 03:56:17;;;;;;;23.08;12.82;;;5.10;99.90;;;;;;7368603;19;20179;-72
2021/12/20 03:58:46;;;;;;;23.83;13.32;;;4.90;99.90;;;;;;7380249;19;20128;-72
2021/12/20 04:01:13;;;;;;;25.63;15.95;;;4.80;99.90;;;;;;7376678;19;20143;-72
2021/12/20 04:03:41;;;;;;;25.67;14.07;;;4.80;99.90;;;;;;7380792;19;20143;-71
2021/12/20 04:06:13;;;;;;;27.60;14.32;;;4.80;99.90;;;;;;7376546;19;20139;-71
2021/12/20 04:08:40;;;;;;;26.35;13.88;;;4.70;99.90;;;;;;7375811;19;20165;-71
2021/12/20 04:11:12;;;;;;;26.92;13.70;;;4.70;99.90;;;;;;7371046;19;20145;-71
2021/12/20 04:13:41;;;;;;;24.38;12.73;;;4.50;99.90;;;;;;7377267;19;20594;-71
2021/12/20 04:16:07;;;;;;;20.25;11.98;;;4.50;99.90;;;;;;7378293;19;20147;-71
2021/12/20 04:18:34;;;;;;;22.70;12.90;;;4.60;99.90;;;;;;7380647;19;20590;-71
2021/12/20 04:21:01;;;;;;;25.67;13.65;;;4.50;99.90;;;;;;7377660;19;20127;-71
2021/12/20 04:23:30;;;;;;;23.10;12.30;;;4.60;99.90;;;;;;7378361;19;20131;-71
2021/12/20 04:26:01;;;;;;;26.52;13.02;;;4.70;99.90;;;;;;7375098;19;20128;-71
2021/12/20 04:28:29;;;;;;;32.60;15.63;;;4.70;99.90;;;;;;7371555;19;20138;-71
2021/12/20 04:31:00;;;;;;;30.13;15.00;;;4.70;99.90;;;;;;7374266;19;20622;-71
2021/12/20 04:33:29;;;;;;;21.38;11.85;;;4.50;99.90;;;;;;7377645;19;20124;-71
2021/12/20 04:36:01;;;;;;;31.50;13.95;;;4.40;99.90;;;;;;7371403;19;20139;-73
2021/12/20 04:38:31;;;;;;;29.20;14.73;;;4.50;99.90;;;;;;7375406;19;20155;-74
2021/12/20 04:40:58;;;;;;;27.92;12.90;;;4.60;99.90;;;;;;7370343;19;20140;-73
2021/12/20 04:43:27;;;;;;;23.05;11.93;;;4.50;99.90;;;;;;7366830;19;20142;-73
2021/12/20 04:45:56;;;;;;;26.63;13.68;;;4.60;99.90;;;;;;7372219;19;20135;-73
2021/12/20 04:48:22;;;;;;;20.55;11.63;;;4.60;99.90;;;;;;7381259;19;20472;-73
2021/12/20 04:50:51;;;;;;;25.67;13.43;;;4.60;99.90;;;;;;7378166;19;20128;-73
2021/12/20 04:53:22;;;;;;;26.17;12.35;;;4.60;99.90;;;;;;7380470;19;20136;-72
2021/12/20 04:55:54;;;;;;;22.98;13.02;;;4.70;99.90;;;;;;7375031;19;20498;-72
2021/12/20 04:58:24;;;;;;;23.25;11.77;;;4.70;99.90;;;;;;7381733;19;20130;-73
2021/12/20 05:00:53;;;;;;;25.20;12.35;;;4.80;99.90;;;;;;7378440;19;20143;-72
2021/12/20 05:03:22;;;;;;;25.95;14.20;;;4.70;99.90;;;;;;7377953;19;21142;-72
2021/12/20 05:05:51;;;;;;;21.00;11.55;;;4.80;99.90;;;;;;7376382;19;20183;-71
2021/12/20 05:08:20;;;;;;;26.02;12.65;;;4.70;99.90;;;;;;7377491;19;20508;-71
2021/12/20 05:10:46;;;;;;;24.73;13.18;;;4.70;99.90;;;;;;7375341;19;20553;-72
2021/12/20 05:13:17;;;;;;;25.95;12.18;;;4.70;99.90;;;;;;7374345;19;20146;-71
2021/12/20 05:15:48;;;;;;;21.75;12.75;;;4.60;99.90;;;;;;7375008;19;20120;-71
2021/12/20 05:18:17;;;;;;;24.85;11.93;;;4.50;99.90;;;;;;7369851;19;20152;-71
2021/12/20 05:20:43;;;;;;;24.02;12.55;;;4.40;99.90;;;;;;7374626;19;20145;-72
2021/12/20 05:23:12;;;;;;;26.10;11.65;;;4.60;99.90;;;;;;7367585;19;20140;-72
2021/12/20 05:25:39;;;;;;;22.42;11.73;;;4.50;99.90;;;;;;7378026;19;20609;-71
2021/12/20 05:28:10;;;;;;;24.05;12.23;;;4.60;99.90;;;;;;7374971;19;20139;-72
2021/12/20 05:30:40;;;;;;;23.77;11.70;;;4.60;99.90;;;;;;7370901;19;20159;-71
2021/12/20 05:33:08;;;;;;;20.08;11.68;;;4.60;99.90;;;;;;7376006;19;20148;-71
2021/12/20 05:35:35;;;;;;;18.25;10.38;;;4.50;99.90;;;;;;7368869;19;20135;-71
2021/12/20 05:38:06;;;;;;;20.85;10.68;;;4.50;99.90;;;;;;7370753;19;20155;-73
2021/12/20 05:40:35;;;;;;;21.65;11.80;;;4.50;99.90;;;;;;7359176;19;20550;-74
2021/12/20 05:43:04;;;;;;;23.73;12.18;;;4.40;99.90;;;;;;7375229;19;20135;-72
2021/12/20 05:45:30;;;;;;;24.88;11.57;;;4.50;99.90;;;;;;7375066;19;20525;-72
2021/12/20 05:47:57;;;;;;;22.90;11.93;;;4.50;99.90;;;;;;7367071;19;20139;-73
2021/12/20 05:50:26;;;;;;;21.73;11.23;;;4.50;99.90;;;;;;7366618;19;20136;-70
2021/12/20 05:52:59;;;;;;;24.67;11.70;;;4.70;99.90;;;;;;7378493;19;20201;-69
2021/12/20 05:55:28;;;;;;;22.95;11.25;;;4.60;99.90;;;;;;7361805;19;20225;-79
2021/12/20 05:57:55;;;;;;;22.05;11.27;;;4.80;99.90;;;;;;7372076;19;20135;-72
2021/12/20 06:00:26;;;;;;;18.70;11.13;;;4.80;99.90;;;;;;7372625;19;20602;-70
2021/12/20 06:02:57;;;;;;;23.38;13.10;;;4.70;99.90;;;;;;7378640;19;20148;-70
2021/12/20 06:05:24;;;;;;;22.83;12.00;;;4.80;99.90;;;;;;7299730;19;20231;-68
2021/12/20 06:07:50;;;;;;;16.95;9.27;;;4.90;99.90;;;;;;7366439;19;20136;-73
2021/12/20 06:10:23;;;;;;;19.23;11.57;;;4.80;99.90;;;;;;7356788;19;20162;-73
2021/12/20 06:12:52;;;;;;;21.60;11.25;;;4.80;99.90;;;;;;7372542;19;23558;-73
2021/12/20 06:15:18;;;;;;;20.20;11.55;;;4.80;99.90;;;;;;7369459;19;20132;-76
2021/12/20 06:17:45;;;;;;;21.50;9.88;;;4.80;99.90;;;;;;7372380;19;20643;-73
2021/12/20 06:20:14;;;;;;;20.58;9.98;;;4.80;99.90;;;;;;7366933;19;20136;-75
2021/12/20 06:22:49;;;;;;;15.77;8.95;;;4.70;99.90;;;;;;7368109;19;20139;-72
2021/12/20 06:25:25;;;;;;;18.65;9.85;;;4.70;99.90;;;;;;7371642;19;20688;-71
2021/12/20 06:27:54;;;;;;;14.70;8.50;;;4.60;99.90;;;;;;7377922;19;20147;-72
2021/12/20 06:30:23;;;;;;;13.75;7.95;;;4.70;99.90;;;;;;7378111;19;20617;-75
2021/12/20 06:32:52;;;;;;;15.25;7.80;;;4.70;99.90;;;;;;7373441;19;20135;-76
2021/12/20 06:35:18;;;;;;;15.52;8.40;;;4.80;99.90;;;;;;7373768;19;20131;-75
2021/12/20 06:37:49;;;;;;;14.20;8.38;;;4.80;99.90;;;;;;7376925;19;20120;-74
2021/12/20 06:40:17;;;;;;;16.02;8.63;;;4.90;99.90;;;;;;7380021;19;20132;-74
2021/12/20 06:42:46;;;;;;;15.05;8.82;;;4.80;99.90;;;;;;7380098;19;20155;-74
2021/12/20 06:45:15;;;;;;;17.95;8.65;;;4.70;99.90;;;;;;7380946;19;20191;-75
2021/12/20 06:47:44;;;;;;;19.25;9.90;;;4.60;99.90;;;;;;7377071;19;20442;-75
2021/12/20 06:50:15;;;;;;;17.20;9.15;;;4.60;99.90;;;;;;7378727;19;20128;-73
2021/12/20 06:52:42;;;;;;;16.45;8.32;;;4.50;99.90;;;;;;7350305;19;21716;-72
2021/12/20 06:55:11;;;;;;;18.52;8.48;;;4.50;99.90;;;;;;7355193;19;20155;-72
2021/12/20 06:57:39;;;;;;;14.82;8.43;;;4.40;99.90;;;;;;7368081;19;20128;-71
2021/12/20 07:00:08;;;;;;;20.75;10.10;;;4.40;99.90;;;;;;7371157;19;20634;-71
2021/12/20 07:02:39;;;;;;;22.27;9.82;;;4.40;99.90;;;;;;7367862;19;20131;-71
2021/12/20 07:05:10;;;;;;;18.55;10.32;;;4.50;99.90;;;;;;7371245;19;20136;-72
2021/12/20 07:07:37;;;;;;;20.55;11.40;;;4.50;99.90;;;;;;7373002;19;20138;-71
2021/12/20 07:10:05;;;;;;;20.92;10.90;;;4.60;99.90;;;;;;7363126;19;20163;-72
2021/12/20 07:12:35;;;;;;;20.25;11.10;;;4.70;99.90;;;;;;7372674;19;20191;-72
2021/12/20 07:15:10;;;;;;;21.45;10.15;;;4.70;99.90;;;;;;7370267;19;20136;-72
2021/12/20 07:17:41;;;;;;;20.60;11.38;;;4.80;99.90;;;;;;7379104;19;20198;-71
2021/12/20 07:20:09;;;;;;;25.17;11.18;;;4.80;99.90;;;;;;7374041;19;20156;-71
2021/12/20 07:22:40;;;;;;;17.88;10.38;;;4.70;99.90;;;;;;7369248;19;20681;-71
2021/12/20 07:25:07;;;;;;;21.75;10.57;;;4.60;99.90;;;;;;7364643;19;20134;-72
2021/12/20 07:27:35;;;;;;;23.40;11.77;;;4.50;99.90;;;;;;7360456;19;20147;-72
2021/12/20 07:30:04;;;;;;;21.48;11.90;;;4.60;99.90;;;;;;7372761;19;20143;-74
2021/12/20 07:32:33;;;;;;;27.05;12.70;;;4.50;99.90;;;;;;7372113;19;20616;-72
2021/12/20 07:35:05;;;;;;;17.52;9.82;;;4.50;99.90;;;;;;7374699;19;20132;-72
2021/12/20 07:37:34;;;;;;;18.17;9.85;;;4.60;99.90;;;;;;7374540;19;20600;-71
2021/12/20 07:40:00;;;;;;;22.35;10.75;;;4.60;99.90;;;;;;7369821;19;20132;-72
2021/12/20 07:42:29;;;;;;;20.83;10.52;;;4.60;99.90;;;;;;7373979;19;20141;-72
2021/12/20 07:45:01;;;;;;;22.55;11.82;;;4.70;99.90;;;;;;7375176;19;20140;-71
2021/12/20 07:47:30;;;;;;;17.08;9.98;;;4.70;99.90;;;;;;7373247;19;20159;-70
2021/12/20 07:49:59;;;;;;;20.23;11.82;;;4.60;99.90;;;;;;7374737;19;20131;-70
2021/12/20 07:52:27;;;;;;;22.15;11.57;;;4.60;99.90;;;;;;7369953;19;20669;-70
2021/12/20 07:54:59;;;;;;;21.13;11.48;;;4.50;99.90;;;;;;7362240;19;20757;-70
2021/12/20 07:57:26;;;;;;;22.27;12.38;;;4.50;99.90;;;;;;7368346;19;20140;-70
2021/12/20 07:59:57;;;;;;;26.40;12.32;;;4.50;99.90;;;;;;7377186;19;20135;-71
2021/12/20 08:02:26;;;;;;;17.08;10.15;;;4.50;99.90;;;;;;7372026;19;20552;-71
2021/12/20 08:04:55;;;;;;;21.50;11.27;;;4.60;99.90;;;;;;7360673;19;20127;-72
2021/12/20 08:07:24;;;;;;;20.20;12.05;;;4.60;99.90;;;;;;7363577;19;20936;-72
2021/12/20 08:09:52;;;;;;;20.70;11.90;;;4.60;99.90;;;;;;7369546;19;20147;-72
2021/12/20 08:12:21;;;;;;;21.23;11.88;;;4.80;99.90;;;;;;7363939;19;20203;-74
2021/12/20 08:14:50;;;;;;;18.88;11.93;;;4.80;99.90;;;;;;7371352;19;20148;-72
2021/12/20 08:17:18;;;;;;;18.58;10.40;;;4.90;99.90;;;;;;7369098;19;20157;-72
2021/12/20 08:19:50;;;;;;;19.25;11.48;;;4.90;99.90;;;;;;7365054;19;20147;-73
2021/12/20 08:22:17;;;;;;;17.27;9.57;;;4.90;99.90;;;;;;7365147;19;20152;-73
2021/12/20 08:24:45;;;;;;;16.08;10.38;;;4.90;99.90;;;;;;7367295;19;20199;-73
2021/12/20 08:27:19;;;;;;;18.98;10.75;;;4.90;99.90;;;;;;7380799;19;20127;-73
2021/12/20 08:29:47;;;;;;;18.67;10.85;;;5.00;99.90;;;;;;7382734;19;20139;-71
2021/12/20 08:32:16;;;;;;;17.55;10.73;;;5.10;99.90;;;;;;7379502;19;20140;-71
2021/12/20 08:34:46;;;;;;;20.08;12.38;;;5.10;99.90;;;;;;7375363;19;20312;-70
2021/12/20 08:37:14;;;;;;;17.90;11.07;;;5.10;99.90;;;;;;7371570;19;20123;-71
2021/12/20 08:39:41;;;;;;;19.17;11.82;;;5.10;99.90;;;;;;7356905;19;20139;-71
2021/12/20 08:42:07;;;;;;;19.60;10.65;;;5.10;99.90;;;;;;7366541;19;20147;-70
2021/12/20 08:44:34;;;;;;;17.92;10.52;;;5.10;99.90;;;;;;7360668;19;20141;-73
2021/12/20 08:47:01;;;;;;;20.40;11.75;;;5.10;99.90;;;;;;7364238;19;20131;-69
2021/12/20 08:49:28;;;;;;;19.85;11.85;;;5.30;99.90;;;;;;7376184;19;20632;-78
2021/12/20 08:51:56;;;;;;;21.33;12.60;;;5.30;99.90;;;;;;7374230;19;20605;-72
2021/12/20 08:54:28;;;;;;;19.13;11.13;;;5.40;99.90;;;;;;7367908;19;20147;-70
2021/12/20 08:57:01;;;;;;;18.88;11.30;;;5.30;99.90;;;;;;7372551;19;20136;-68
2021/12/20 08:59:31;;;;;;;24.35;12.15;;;;;;;;;;7370063;19;20211;-67
2021/12/20 09:04:31;;;;;;;22.90;12.33;;;20.00;35.50;;;;;;7109561;19;3007910;-61
2021/12/20 09:06:57;;;;;;;20.05;11.75;;;11.20;52.40;;;;;;7388361;19;20458;-63
2021/12/20 09:10:58;;;;;;;24.73;12.48;;;9.10;58.20;;;;;;7222555;19;118480;-60
2021/12/20 09:13:27;;;;;;;25.25;12.85;;;7.70;64.20;;;;;;7165029;19;20209;-62
2021/12/20 09:15:59;;;;;;;25.10;12.95;;;7.30;66.00;;;;;;7387046;19;20352;-63
2021/12/20 09:18:28;;;;;;;21.20;12.60;;;7.10;67.40;;;;;;7374761;19;20206;-63
2021/12/20 09:20:59;;;;;;;22.60;12.30;;;7.00;68.30;;;;;;7395469;19;20123;-54
2021/12/20 09:23:30;;;;;;;20.58;12.23;;;7.00;68.70;;;;;;7394971;19;20134;-54
2021/12/20 09:26:02;;;;;;;23.45;12.05;;;7.00;68.90;;;;;;7403162;19;20149;-55
2021/12/20 09:28:32;;;;;;;22.77;12.35;;;7.00;69.20;;;;;;7398162;19;20134;-55
2021/12/20 09:31:02;;;;;;;25.02;14.82;;;7.00;69.20;;;;;;7407703;19;20123;-55
2021/12/20 09:33:31;;;;;;;23.67;12.65;;;7.00;68.40;;;;;;7406327;19;21838;-55
2021/12/20 09:36:01;;;;;;;22.10;12.07;;;7.00;68.70;;;;;;7408947;19;20131;-55
2021/12/20 09:38:31;;;;;;;20.92;11.98;;;6.90;68.50;;;;;;7407561;19;20135;-55
2021/12/20 09:41:14;;;;;;;21.75;11.75;;;6.90;69.10;;;;;;7402834;19;20506;-55
2021/12/20 09:43:47;;;;;;;23.50;12.57;;;6.80;68.90;;;;;;7409261;19;20211;-55
2021/12/20 09:46:21;;;;;;;22.40;12.02;;;6.80;69.70;;;;;;7408703;19;20191;-55
2021/12/20 09:48:52;;;;;;;22.75;11.45;;;6.90;69.50;;;;;;7412767;19;20128;-55
2021/12/20 09:51:22;;;;;;;28.00;12.98;;;6.90;68.80;;;;;;7411725;19;20494;-55
2021/12/20 09:53:51;;;;;;;24.25;12.73;;;6.90;68.70;;;;;;7399477;19;20169;-54
2021/12/20 09:56:28;;;;;;;25.55;13.32;;;6.90;69.00;;;;;;7400317;19;20190;-53
2021/12/20 09:59:00;;;;;;;26.13;13.95;;;6.80;69.00;;;;;;7402892;19;20150;-54
2021/12/20 10:01:31;;;;;;;23.55;13.48;;;6.80;67.90;;;;;;7391721;19;20190;-54
2021/12/20 10:04:01;;;;;;;24.77;13.02;;;6.80;68.40;;;;;;7404351;19;20123;-54
2021/12/20 10:06:30;;;;;;;25.52;13.55;;;6.90;68.40;;;;;;7406964;19;20127;-54
2021/12/20 10:09:09;;;;;;;27.25;13.85;;;7.10;68.20;;;;;;7411722;19;20178;-54
2021/12/20 10:11:43;;;;;;;28.95;14.00;;;7.10;67.30;;;;;;7397091;19;20166;-54
2021/12/20 10:14:16;;;;;;;25.67;15.02;;;7.20;67.40;;;;;;7415018;19;20130;-54
2021/12/20 10:16:47;;;;;;;29.48;14.07;;;7.10;66.80;;;;;;7417395;19;20133;-54
2021/12/20 10:19:31;;;;;;;24.42;13.60;;;7.60;66.70;;;;;;7416483;19;20127;-55
2021/12/20 10:22:02;;;;;;;30.52;13.75;;;7.60;64.50;;;;;;7384996;19;20139;-54
2021/12/20 10:24:33;;;;;;;24.42;13.68;;;7.50;65.40;;;;;;7385156;19;20131;-54
2021/12/20 10:27:06;;;;;;;24.40;14.45;;;7.50;65.50;;;;;;7381971;19;20469;-54
2021/12/20 10:29:39;;;;;;;22.80;12.52;;;7.30;65.70;;;;;;7386036;19;20139;-60
2021/12/20 10:32:12;;;;;;;21.08;11.48;;;7.50;66.30;;;;;;7383732;19;20119;-60
2021/12/20 10:34:41;;;;;;;18.85;11.27;;;7.50;64.20;;;;;;7384539;19;20131;-60
2021/12/20 10:37:11;;;;;;;18.38;11.07;;;7.30;63.90;;;;;;7380471;19;20140;-60
2021/12/20 10:39:44;;;;;;;22.17;11.40;;;7.30;64.30;;;;;;7386145;19;20609;-60
2021/12/20 10:42:24;;;;;;;18.60;10.52;;;7.30;63.70;;;;;;7383842;19;20148;-60
2021/12/20 10:45:09;;;;;;;16.40;8.27;;;7.00;63.30;;;;;;7389929;19;20127;-61
2021/12/20 10:47:41;;;;;;;14.57;7.93;;;7.10;63.00;;;;;;7388267;19;20138;-61
2021/12/20 10:50:32;;;;;;;15.80;8.65;;;7.00;62.60;;;;;;7385795;19;20645;-60
2021/12/20 10:53:16;;;;;;;18.05;9.35;;;7.20;63.30;;;;;;7384904;19;20624;-60
2021/12/20 10:55:47;;;;;;;18.73;10.70;;;7.30;62.70;;;;;;7378450;19;20482;-60
2021/12/20 10:58:32;;;;;;;17.92;10.30;;;7.10;61.90;;;;;;7379495;19;20142;-60
2021/12/20 11:01:21;;;;;;;17.48;9.55;;;7.20;61.50;;;;;;7384848;19;20558;-61
2021/12/20 11:04:00;;;;;;;20.50;9.95;;;7.50;61.10;;;;;;7385830;19;20576;-60
2021/12/20 11:09:23;;;;;;;15.13;8.85;;;7.90;59.70;;;;;;7379950;19;20155;-62
2021/12/20 11:11:57;;;;;;;17.98;9.10;;;8.40;58.10;;;;;;7375799;19;20155;-61
2021/12/20 11:14:31;;;;;;;11.25;7.47;;;8.40;58.40;;;;;;7379840;19;20564;-60
2021/12/20 11:17:02;;;;;;;13.55;8.45;;;9.90;56.20;;;;;;7384442;19;20131;-61
2021/12/20 11:19:33;;;;;;;17.93;10.00;;;11.60;50.80;;;;;;7384226;19;20139;-61
2021/12/20 11:22:09;;;;;;;16.53;10.13;;;12.20;48.20;;;;;;7385848;19;20379;-61
2021/12/20 11:24:43;;;;;;;19.40;10.27;;;12.70;47.00;;;;;;7386036;19;21326;-61
2021/12/20 11:27:15;;;;;;;14.30;10.60;;;13.30;46.00;;;;;;7378115;19;20917;-61
2021/12/20 11:29:50;;;;;;;15.33;9.97;;;12.90;45.60;;;;;;7378872;19;20368;-55
2021/12/20 11:32:21;;;;;;;13.53;9.57;;;12.10;46.30;;;;;;7374560;19;20379;-56
2021/12/20 11:34:51;;;;;;;17.17;9.50;;;11.70;48.30;;;;;;7378391;19;20360;-55
2021/12/20 11:37:24;;;;;;;16.97;10.30;;;10.60;49.10;;;;;;7370998;19;20924;-60
2021/12/20 11:39:56;;;;;;;14.50;8.90;;;9.60;53.00;;;;;;7375270;19;20372;-60
2021/12/20 11:42:26;;;;;;;14.60;8.37;;;9.20;54.00;;;;;;7377620;19;20376;-61
2021/12/20 11:45:02;;;;;;;13.00;7.80;;;9.00;54.50;;;;;;7382745;19;20373;-60
2021/12/20 11:47:36;;;;;;;15.20;7.80;;;9.00;54.40;;;;;;7379700;19;20376;-60
2021/12/20 11:50:09;;;;;;;13.38;7.57;;;8.80;54.50;;;;;;7378088;19;20135;-60
2021/12/20 11:52:40;;;;;;;10.63;6.50;;;8.90;54.80;;;;;;7383529;19;20610;-60
2021/12/20 11:55:22;;;;;;;12.27;7.00;;;9.10;54.70;;;;;;7372595;19;20131;-60
2021/12/20 11:57:52;;;;;;;14.90;8.25;;;9.00;53.80;;;;;;7380341;19;20255;-61
2021/12/20 12:00:33;;;;;;;13.00;8.15;;;8.60;54.60;;;;;;7379087;19;20610;-55
2021/12/20 12:03:08;;;;;;;16.42;8.13;;;8.20;55.90;;;;;;7383483;19;20132;-55
2021/12/20 12:05:49;;;;;;;11.25;7.30;;;8.10;56.60;;;;;;7376088;19;20131;-55
2021/12/20 12:08:33;;;;;;;13.80;8.13;;;8.10;57.00;;;;;;7381378;19;20142;-55
2021/12/20 12:11:19;;;;;;;14.48;8.20;;;8.20;57.40;;;;;;7376019;19;20193;-55
2021/12/20 12:14:35;;;;;;;17.67;9.38;;;8.20;57.90;;;;;;7380722;19;20232;-55
2021/12/20 12:17:14;;;;;;;17.83;9.70;;;8.30;58.20;;;;;;7379753;19;20126;-55
2021/12/20 12:19:48;;;;;;;18.00;10.32;;;8.30;58.50;;;;;;7377213;19;20154;-56
2021/12/20 12:22:37;;;;;;;16.92;10.40;;;8.20;58.60;;;;;;7375427;19;20131;-55
2021/12/20 12:25:10;;;;;;;14.82;9.00;;;8.00;59.00;;;;;;7370834;19;20506;-55
2021/12/20 12:27:44;;;;;;;16.65;9.27;;;8.00;59.30;;;;;;7375473;19;20127;-55
2021/12/20 12:30:30;;;;;;;19.48;9.80;;;7.90;59.50;;;;;;7381210;19;20168;-55
2021/12/20 12:33:32;;;;;;;16.55;8.95;;;7.80;59.30;;;;;;7381223;19;20131;-54
2021/12/20 12:36:11;;;;;;;20.45;10.50;;;7.70;59.60;;;;;;7378102;19;20240;-55
2021/12/20 12:38:54;;;;;;;18.55;8.55;;;7.80;59.70;;;;;;7378936;19;20497;-55
2021/12/20 12:41:26;;;;;;;15.65;8.57;;;8.00;59.60;;;;;;7380726;19;20124;-54
2021/12/20 12:44:02;;;;;;;14.43;8.82;;;7.90;59.10;;;;;;7379223;19;20123;-55
2021/12/20 12:47:12;;;;;;;13.30;8.55;;;8.00;59.30;;;;;;7374421;19;20157;-56
2021/12/20 12:49:56;;;;;;;16.23;8.50;;;8.00;58.80;;;;;;7372863;19;20190;-55
2021/12/20 12:52:40;;;;;;;16.23;8.20;;;8.10;59.10;;;;;;7370465;19;20150;-55
2021/12/20 12:55:29;;;;;;;17.33;10.18;;;8.30;58.10;;;;;;7370718;19;20142;-55
2021/12/20 12:58:00;;;;;;;15.98;8.93;;;8.30;58.20;;;;;;7367624;19;20452;-55
2021/12/20 13:00:35;;;;;;;15.35;7.60;;;8.40;57.80;;;;;;7360666;19;20522;-55
2021/12/20 13:03:16;;;;;;;14.48;7.40;;;8.50;57.40;;;;;;7368209;19;20210;-55
2021/12/20 13:05:48;;;;;;;14.23;8.32;;;8.40;57.30;;;;;;7363752;19;20131;-55
2021/12/20 13:08:19;;;;;;;15.80;7.70;;;8.20;57.40;;;;;;7364391;19;20815;-55
2021/12/20 13:10:51;;;;;;;19.90;8.95;;;8.10;58.20;;;;;;7355608;19;20305;-55
2021/12/20 13:13:24;;;;;;;13.13;7.95;;;8.00;58.40;;;;;;7372295;19;20151;-55
2021/12/20 13:15:59;;;;;;;17.40;8.88;;;7.90;58.90;;;;;;7372302;19;20590;-55